Rozet, Wyoming
Current Conditions -  °F | °C
As of 7:53 PM on Monday 20 Oct 2014 (Local Time) from KGCC Reporting Station
Clear Clear  
Wind Chill: 61°   Ceiling: Unl
Heat Index: 61°   Visibility: 10mi
Dew Point: 33°   Wind: 13mph
Humidity: 35%   Direction: 190°S
Pressure: 29.91"   Gusts: NA
Location:  44.28°N, 105.21°W
Report Text: KGCC 210153Z AUTO 19011KT 10SM CLR 16/01 A2991 RMK AO2 SLP107 T01610006 $
Loading
Personal Weather Stations






























Interactive Weather Map
Tropical Storm Tracking
New forecast layout! Learn more

10-Day Weather Forecast

Advertisements
Track Severe Weather on mobile